sensor_id;sensor_type;location;lat;lon;timestamp;P1;durP1;ratioP1;P2;durP2;ratioP2
25107;SDS011;13090;53.422;7.670;2023-11-21T00:01:41;9.50;;;2.97;;
25107;SDS011;13090;53.422;7.670;2023-11-21T00:07:21;10.73;;;2.60;;
25107;SDS011;13090;53.422;7.670;2023-11-21T00:13:03;11.20;;;2.72;;
25107;SDS011;13090;53.422;7.670;2023-11-21T00:18:43;10.20;;;2.67;;
25107;SDS011;13090;53.422;7.670;2023-11-21T00:24:23;9.77;;;2.38;;
25107;SDS011;13090;53.422;7.670;2023-11-21T00:30:05;13.88;;;2.30;;
25107;SDS011;13090;53.422;7.670;2023-11-21T00:35:46;7.57;;;2.53;;
25107;SDS011;13090;53.422;7.670;2023-11-21T00:41:26;10.80;;;2.97;;
25107;SDS011;13090;53.422;7.670;2023-11-21T00:47:08;11.40;;;2.50;;
25107;SDS011;13090;53.422;7.670;2023-11-21T00:52:49;10.95;;;2.75;;
25107;SDS011;13090;53.422;7.670;2023-11-21T00:58:29;9.43;;;2.80;;
25107;SDS011;13090;53.422;7.670;2023-11-21T01:04:10;10.52;;;2.70;;
25107;SDS011;13090;53.422;7.670;2023-11-21T01:09:50;9.48;;;2.90;;
25107;SDS011;13090;53.422;7.670;2023-11-21T01:15:31;7.07;;;2.75;;
25107;SDS011;13090;53.422;7.670;2023-11-21T01:21:13;15.75;;;3.90;;
25107;SDS011;13090;53.422;7.670;2023-11-21T01:26:52;10.05;;;3.90;;
25107;SDS011;13090;53.422;7.670;2023-11-21T01:32:33;12.52;;;3.65;;
25107;SDS011;13090;53.422;7.670;2023-11-21T01:38:14;7.15;;;3.17;;
25107;SDS011;13090;53.422;7.670;2023-11-21T01:43:54;10.73;;;3.50;;
25107;SDS011;13090;53.422;7.670;2023-11-21T01:49:34;11.82;;;3.40;;
25107;SDS011;13090;53.422;7.670;2023-11-21T01:55:17;10.88;;;3.85;;
25107;SDS011;13090;53.422;7.670;2023-11-21T02:01:07;14.45;;;3.40;;
25107;SDS011;13090;53.422;7.670;2023-11-21T02:06:48;12.60;;;3.90;;
25107;SDS011;13090;53.422;7.670;2023-11-21T02:12:29;9.50;;;3.55;;
25107;SDS011;13090;53.422;7.670;2023-11-21T02:18:09;8.57;;;3.50;;
25107;SDS011;13090;53.422;7.670;2023-11-21T02:23:51;9.27;;;3.50;;
25107;SDS011;13090;53.422;7.670;2023-11-21T02:29:31;16.38;;;3.55;;
25107;SDS011;13090;53.422;7.670;2023-11-21T02:35:11;14.10;;;3.58;;
25107;SDS011;13090;53.422;7.670;2023-11-21T02:40:53;10.32;;;3.40;;
25107;SDS011;13090;53.422;7.670;2023-11-21T02:46:33;14.88;;;4.00;;
25107;SDS011;13090;53.422;7.670;2023-11-21T02:52:14;10.32;;;4.75;;
25107;SDS011;13090;53.422;7.670;2023-11-21T02:57:55;12.65;;;4.82;;
25107;SDS011;13090;53.422;7.670;2023-11-21T03:03:36;13.23;;;5.28;;
25107;SDS011;13090;53.422;7.670;2023-11-21T03:09:16;14.80;;;5.53;;
25107;SDS011;13090;53.422;7.670;2023-11-21T03:14:58;14.15;;;6.78;;
25107;SDS011;13090;53.422;7.670;2023-11-21T03:20:38;17.58;;;8.85;;
25107;SDS011;13090;53.422;7.670;2023-11-21T03:26:18;17.35;;;10.25;;
25107;SDS011;13090;53.422;7.670;2023-11-21T03:32:00;19.42;;;10.60;;
25107;SDS011;13090;53.422;7.670;2023-11-21T03:37:40;15.75;;;8.10;;
25107;SDS011;13090;53.422;7.670;2023-11-21T03:43:21;20.60;;;9.63;;
25107;SDS011;13090;53.422;7.670;2023-11-21T03:49:03;14.60;;;8.70;;
25107;SDS011;13090;53.422;7.670;2023-11-21T03:54:42;15.10;;;8.20;;
25107;SDS011;13090;53.422;7.670;2023-11-21T04:00:23;15.00;;;8.77;;
25107;SDS011;13090;53.422;7.670;2023-11-21T04:06:06;14.40;;;9.23;;
25107;SDS011;13090;53.422;7.670;2023-11-21T04:11:47;14.63;;;8.50;;
25107;SDS011;13090;53.422;7.670;2023-11-21T04:17:27;29.98;;;12.05;;
25107;SDS011;13090;53.422;7.670;2023-11-21T04:23:08;19.73;;;10.77;;
25107;SDS011;13090;53.422;7.670;2023-11-21T04:28:48;20.05;;;10.48;;
25107;SDS011;13090;53.422;7.670;2023-11-21T04:34:29;16.25;;;9.32;;
25107;SDS011;13090;53.422;7.670;2023-11-21T04:40:11;17.30;;;10.02;;
25107;SDS011;13090;53.422;7.670;2023-11-21T04:45:52;15.38;;;8.77;;
25107;SDS011;13090;53.422;7.670;2023-11-21T04:51:32;21.70;;;10.93;;
25107;SDS011;13090;53.422;7.670;2023-11-21T04:57:14;18.27;;;9.85;;
25107;SDS011;13090;53.422;7.670;2023-11-21T05:02:54;20.00;;;10.98;;
25107;SDS011;13090;53.422;7.670;2023-11-21T05:08:34;23.38;;;12.73;;
25107;SDS011;13090;53.422;7.670;2023-11-21T05:14:16;18.02;;;9.73;;
25107;SDS011;13090;53.422;7.670;2023-11-21T05:19:56;16.10;;;9.23;;
25107;SDS011;13090;53.422;7.670;2023-11-21T05:25:36;15.07;;;9.40;;
25107;SDS011;13090;53.422;7.670;2023-11-21T05:31:21;18.95;;;10.65;;
25107;SDS011;13090;53.422;7.670;2023-11-21T05:37:01;17.73;;;10.70;;
25107;SDS011;13090;53.422;7.670;2023-11-21T05:42:42;17.08;;;10.40;;
25107;SDS011;13090;53.422;7.670;2023-11-21T05:48:25;13.52;;;10.20;;
25107;SDS011;13090;53.422;7.670;2023-11-21T05:54:05;17.10;;;11.93;;
25107;SDS011;13090;53.422;7.670;2023-11-21T05:59:46;13.32;;;9.65;;
25107;SDS011;13090;53.422;7.670;2023-11-21T06:05:27;13.38;;;9.93;;
25107;SDS011;13090;53.422;7.670;2023-11-21T06:11:08;13.85;;;9.75;;
25107;SDS011;13090;53.422;7.670;2023-11-21T06:16:48;14.00;;;8.98;;
25107;SDS011;13090;53.422;7.670;2023-11-21T06:22:30;14.57;;;10.05;;
25107;SDS011;13090;53.422;7.670;2023-11-21T06:28:11;12.90;;;8.20;;
25107;SDS011;13090;53.422;7.670;2023-11-21T06:33:51;12.43;;;8.52;;
25107;SDS011;13090;53.422;7.670;2023-11-21T06:39:33;12.50;;;8.50;;
25107;SDS011;13090;53.422;7.670;2023-11-21T06:45:13;11.52;;;8.07;;
25107;SDS011;13090;53.422;7.670;2023-11-21T06:50:55;11.68;;;8.68;;
25107;SDS011;13090;53.422;7.670;2023-11-21T06:56:36;12.80;;;9.00;;
25107;SDS011;13090;53.422;7.670;2023-11-21T07:02:16;13.70;;;8.57;;
25107;SDS011;13090;53.422;7.670;2023-11-21T07:07:57;12.75;;;7.70;;
25107;SDS011;13090;53.422;7.670;2023-11-21T07:13:39;13.38;;;8.40;;
25107;SDS011;13090;53.422;7.670;2023-11-21T07:19:20;12.43;;;7.88;;
25107;SDS011;13090;53.422;7.670;2023-11-21T07:25:00;11.38;;;7.75;;
25107;SDS011;13090;53.422;7.670;2023-11-21T07:30:42;10.32;;;7.00;;
25107;SDS011;13090;53.422;7.670;2023-11-21T07:36:22;8.77;;;5.90;;
25107;SDS011;13090;53.422;7.670;2023-11-21T07:42:03;10.10;;;6.85;;
25107;SDS011;13090;53.422;7.670;2023-11-21T07:47:45;10.27;;;6.80;;
25107;SDS011;13090;53.422;7.670;2023-11-21T07:53:25;10.23;;;7.40;;
25107;SDS011;13090;53.422;7.670;2023-11-21T07:59:06;10.90;;;6.75;;
25107;SDS011;13090;53.422;7.670;2023-11-21T08:04:48;11.68;;;7.07;;
25107;SDS011;13090;53.422;7.670;2023-11-21T08:10:28;10.00;;;6.63;;
25107;SDS011;13090;53.422;7.670;2023-11-21T08:16:08;10.32;;;6.70;;
25107;SDS011;13090;53.422;7.670;2023-11-21T08:21:50;10.05;;;6.47;;
25107;SDS011;13090;53.422;7.670;2023-11-21T08:27:31;10.50;;;6.75;;
25107;SDS011;13090;53.422;7.670;2023-11-21T08:33:11;9.20;;;6.07;;
25107;SDS011;13090;53.422;7.670;2023-11-21T08:38:53;12.00;;;7.78;;
25107;SDS011;13090;53.422;7.670;2023-11-21T08:44:33;10.90;;;6.93;;
25107;SDS011;13090;53.422;7.670;2023-11-21T08:50:13;9.60;;;6.32;;
25107;SDS011;13090;53.422;7.670;2023-11-21T08:55:55;13.13;;;8.38;;
25107;SDS011;13090;53.422;7.670;2023-11-21T09:01:36;9.50;;;6.75;;
25107;SDS011;13090;53.422;7.670;2023-11-21T09:07:16;8.60;;;5.78;;
25107;SDS011;13090;53.422;7.670;2023-11-21T09:12:57;13.10;;;7.22;;
25107;SDS011;13090;53.422;7.670;2023-11-21T09:18:38;11.43;;;6.30;;
25107;SDS011;13090;53.422;7.670;2023-11-21T09:24:18;9.50;;;5.97;;
25107;SDS011;13090;53.422;7.670;2023-11-21T09:30:00;7.78;;;5.43;;
25107;SDS011;13090;53.422;7.670;2023-11-21T09:35:40;10.40;;;7.00;;
25107;SDS011;13090;53.422;7.670;2023-11-21T09:41:21;11.68;;;6.65;;
25107;SDS011;13090;53.422;7.670;2023-11-21T09:47:14;10.77;;;6.72;;
25107;SDS011;13090;53.422;7.670;2023-11-21T09:52:57;9.18;;;6.65;;
25107;SDS011;13090;53.422;7.670;2023-11-21T09:58:43;10.00;;;5.75;;
25107;SDS011;13090;53.422;7.670;2023-11-21T10:04:27;7.95;;;5.70;;
25107;SDS011;13090;53.422;7.670;2023-11-21T10:10:08;9.43;;;6.28;;
25107;SDS011;13090;53.422;7.670;2023-11-21T10:15:50;8.88;;;5.57;;
25107;SDS011;13090;53.422;7.670;2023-11-21T10:21:32;7.60;;;5.68;;
25107;SDS011;13090;53.422;7.670;2023-11-21T10:27:13;9.57;;;6.15;;
25107;SDS011;13090;53.422;7.670;2023-11-21T10:32:54;10.50;;;6.25;;
25107;SDS011;13090;53.422;7.670;2023-11-21T10:38:43;8.23;;;5.38;;
25107;SDS011;13090;53.422;7.670;2023-11-21T10:44:24;9.68;;;5.30;;
25107;SDS011;13090;53.422;7.670;2023-11-21T10:50:04;10.57;;;6.88;;
25107;SDS011;13090;53.422;7.670;2023-11-21T10:55:46;9.00;;;6.18;;
25107;SDS011;13090;53.422;7.670;2023-11-21T11:01:27;7.32;;;5.05;;
25107;SDS011;13090;53.422;7.670;2023-11-21T11:07:10;11.43;;;5.20;;
25107;SDS011;13090;53.422;7.670;2023-11-21T11:12:54;8.13;;;5.00;;
25107;SDS011;13090;53.422;7.670;2023-11-21T11:18:35;5.30;;;4.18;;
25107;SDS011;13090;53.422;7.670;2023-11-21T11:24:33;5.68;;;3.97;;
25107;SDS011;13090;53.422;7.670;2023-11-21T11:30:29;5.55;;;4.18;;
25107;SDS011;13090;53.422;7.670;2023-11-21T11:36:26;6.85;;;4.57;;
25107;SDS011;13090;53.422;7.670;2023-11-21T11:42:12;7.63;;;4.35;;
25107;SDS011;13090;53.422;7.670;2023-11-21T11:47:57;6.68;;;4.35;;
25107;SDS011;13090;53.422;7.670;2023-11-21T11:53:39;5.30;;;3.65;;
25107;SDS011;13090;53.422;7.670;2023-11-21T11:59:20;7.80;;;3.80;;
25107;SDS011;13090;53.422;7.670;2023-11-21T12:05:06;5.03;;;3.45;;
25107;SDS011;13090;53.422;7.670;2023-11-21T12:10:48;7.55;;;3.35;;
25107;SDS011;13090;53.422;7.670;2023-11-21T12:16:28;3.97;;;3.15;;
25107;SDS011;13090;53.422;7.670;2023-11-21T12:22:14;5.60;;;3.47;;
25107;SDS011;13090;53.422;7.670;2023-11-21T12:27:55;6.68;;;3.63;;
25107;SDS011;13090;53.422;7.670;2023-11-21T12:33:36;7.93;;;3.45;;
25107;SDS011;13090;53.422;7.670;2023-11-21T12:39:18;4.32;;;3.45;;
25107;SDS011;13090;53.422;7.670;2023-11-21T12:45:09;6.88;;;3.95;;
25107;SDS011;13090;53.422;7.670;2023-11-21T12:50:57;6.65;;;3.90;;
25107;SDS011;13090;53.422;7.670;2023-11-21T12:56:39;5.20;;;3.42;;
25107;SDS011;13090;53.422;7.670;2023-11-21T13:02:19;4.93;;;3.50;;
25107;SDS011;13090;53.422;7.670;2023-11-21T13:08:00;5.50;;;3.47;;
25107;SDS011;13090;53.422;7.670;2023-11-21T13:13:44;4.95;;;3.95;;
25107;SDS011;13090;53.422;7.670;2023-11-21T13:19:24;4.28;;;3.28;;
25107;SDS011;13090;53.422;7.670;2023-11-21T13:25:05;5.18;;;3.47;;
25107;SDS011;13090;53.422;7.670;2023-11-21T13:30:47;4.95;;;3.55;;
25107;SDS011;13090;53.422;7.670;2023-11-21T13:36:27;5.88;;;4.20;;
25107;SDS011;13090;53.422;7.670;2023-11-21T13:42:08;5.32;;;4.00;;
25107;SDS011;13090;53.422;7.670;2023-11-21T13:47:50;7.32;;;3.40;;
25107;SDS011;13090;53.422;7.670;2023-11-21T13:53:32;4.78;;;3.35;;
25107;SDS011;13090;53.422;7.670;2023-11-21T13:59:12;6.60;;;3.47;;
25107;SDS011;13090;53.422;7.670;2023-11-21T14:04:54;5.32;;;3.80;;
25107;SDS011;13090;53.422;7.670;2023-11-21T14:10:34;5.80;;;4.35;;
25107;SDS011;13090;53.422;7.670;2023-11-21T14:16:15;6.20;;;4.55;;
25107;SDS011;13090;53.422;7.670;2023-11-21T14:21:57;5.90;;;3.65;;
25107;SDS011;13090;53.422;7.670;2023-11-21T14:27:37;6.25;;;4.20;;
25107;SDS011;13090;53.422;7.670;2023-11-21T14:33:17;7.40;;;3.78;;
25107;SDS011;13090;53.422;7.670;2023-11-21T14:38:59;5.95;;;4.38;;
25107;SDS011;13090;53.422;7.670;2023-11-21T14:44:39;6.45;;;4.38;;
25107;SDS011;13090;53.422;7.670;2023-11-21T14:50:20;4.38;;;3.47;;
25107;SDS011;13090;53.422;7.670;2023-11-21T14:56:02;8.18;;;4.28;;
25107;SDS011;13090;53.422;7.670;2023-11-21T15:01:42;6.70;;;4.07;;
25107;SDS011;13090;53.422;7.670;2023-11-21T15:07:22;6.22;;;3.70;;
25107;SDS011;13090;53.422;7.670;2023-11-21T15:13:04;6.50;;;3.90;;
25107;SDS011;13090;53.422;7.670;2023-11-21T15:18:44;6.60;;;3.65;;
25107;SDS011;13090;53.422;7.670;2023-11-21T15:24:25;5.53;;;4.30;;
25107;SDS011;13090;53.422;7.670;2023-11-21T15:30:08;5.78;;;4.00;;
25107;SDS011;13090;53.422;7.670;2023-11-21T15:35:49;4.53;;;3.80;;
25107;SDS011;13090;53.422;7.670;2023-11-21T15:41:29;5.63;;;4.07;;
25107;SDS011;13090;53.422;7.670;2023-11-21T15:47:11;5.18;;;4.05;;
25107;SDS011;13090;53.422;7.670;2023-11-21T15:52:51;6.65;;;4.30;;
25107;SDS011;13090;53.422;7.670;2023-11-21T15:58:37;7.00;;;4.13;;
25107;SDS011;13090;53.422;7.670;2023-11-21T16:04:19;5.28;;;3.97;;
25107;SDS011;13090;53.422;7.670;2023-11-21T16:10:01;5.05;;;4.30;;
25107;SDS011;13090;53.422;7.670;2023-11-21T16:15:41;5.38;;;3.92;;
25107;SDS011;13090;53.422;7.670;2023-11-21T16:21:25;5.35;;;3.63;;
25107;SDS011;13090;53.422;7.670;2023-11-21T16:27:05;4.90;;;3.80;;
25107;SDS011;13090;53.422;7.670;2023-11-21T16:32:45;4.72;;;4.20;;
25107;SDS011;13090;53.422;7.670;2023-11-21T16:38:27;7.57;;;4.15;;
25107;SDS011;13090;53.422;7.670;2023-11-21T16:44:12;7.43;;;4.30;;
25107;SDS011;13090;53.422;7.670;2023-11-21T16:49:53;7.93;;;4.50;;
25107;SDS011;13090;53.422;7.670;2023-11-21T16:55:35;6.70;;;4.55;;
25107;SDS011;13090;53.422;7.670;2023-11-21T17:01:15;6.70;;;3.97;;
25107;SDS011;13090;53.422;7.670;2023-11-21T17:06:55;5.25;;;4.10;;
25107;SDS011;13090;53.422;7.670;2023-11-21T17:12:37;6.55;;;3.88;;
25107;SDS011;13090;53.422;7.670;2023-11-21T17:18:17;5.00;;;3.47;;
25107;SDS011;13090;53.422;7.670;2023-11-21T17:23:57;4.82;;;3.50;;
25107;SDS011;13090;53.422;7.670;2023-11-21T17:29:39;7.55;;;3.80;;
25107;SDS011;13090;53.422;7.670;2023-11-21T17:35:20;4.65;;;3.40;;
25107;SDS011;13090;53.422;7.670;2023-11-21T17:41:00;5.30;;;3.38;;
25107;SDS011;13090;53.422;7.670;2023-11-21T17:46:42;4.28;;;2.90;;
25107;SDS011;13090;53.422;7.670;2023-11-21T17:52:22;9.98;;;3.22;;
25107;SDS011;13090;53.422;7.670;2023-11-21T17:58:02;5.18;;;2.90;;
25107;SDS011;13090;53.422;7.670;2023-11-21T18:03:44;3.30;;;2.58;;
25107;SDS011;13090;53.422;7.670;2023-11-21T18:09:24;5.03;;;2.92;;
25107;SDS011;13090;53.422;7.670;2023-11-21T18:15:05;3.72;;;2.85;;
25107;SDS011;13090;53.422;7.670;2023-11-21T18:20:47;3.53;;;3.10;;
25107;SDS011;13090;53.422;7.670;2023-11-21T18:26:28;4.05;;;2.63;;
25107;SDS011;13090;53.422;7.670;2023-11-21T18:32:08;4.82;;;2.95;;
25107;SDS011;13090;53.422;7.670;2023-11-21T18:37:50;5.47;;;3.15;;
25107;SDS011;13090;53.422;7.670;2023-11-21T18:43:30;4.45;;;3.17;;
25107;SDS011;13090;53.422;7.670;2023-11-21T18:49:11;7.85;;;3.60;;
25107;SDS011;13090;53.422;7.670;2023-11-21T18:54:52;4.53;;;2.90;;
25107;SDS011;13090;53.422;7.670;2023-11-21T19:00:33;6.63;;;3.53;;
25107;SDS011;13090;53.422;7.670;2023-11-21T19:06:13;4.20;;;3.13;;
25107;SDS011;13090;53.422;7.670;2023-11-21T19:11:55;6.43;;;3.40;;
25107;SDS011;13090;53.422;7.670;2023-11-21T19:17:35;4.80;;;3.58;;
25107;SDS011;13090;53.422;7.670;2023-11-21T19:23:16;6.45;;;3.33;;
25107;SDS011;13090;53.422;7.670;2023-11-21T19:28:58;6.63;;;3.80;;
25107;SDS011;13090;53.422;7.670;2023-11-21T19:34:38;7.43;;;4.32;;
25107;SDS011;13090;53.422;7.670;2023-11-21T19:40:18;5.70;;;3.75;;
25107;SDS011;13090;53.422;7.670;2023-11-21T19:46:00;6.32;;;4.07;;
25107;SDS011;13090;53.422;7.670;2023-11-21T19:51:40;7.47;;;4.20;;
25107;SDS011;13090;53.422;7.670;2023-11-21T19:57:21;5.93;;;3.83;;
25107;SDS011;13090;53.422;7.670;2023-11-21T20:03:03;7.28;;;5.18;;
25107;SDS011;13090;53.422;7.670;2023-11-21T20:08:43;8.05;;;5.43;;
25107;SDS011;13090;53.422;7.670;2023-11-21T20:14:23;8.25;;;5.65;;
25107;SDS011;13090;53.422;7.670;2023-11-21T20:20:07;10.35;;;7.28;;
25107;SDS011;13090;53.422;7.670;2023-11-21T20:25:47;11.80;;;7.00;;
25107;SDS011;13090;53.422;7.670;2023-11-21T20:31:28;10.68;;;5.88;;
25107;SDS011;13090;53.422;7.670;2023-11-21T20:37:10;10.52;;;5.63;;
25107;SDS011;13090;53.422;7.670;2023-11-21T20:42:50;8.02;;;5.10;;
25107;SDS011;13090;53.422;7.670;2023-11-21T20:48:30;9.05;;;5.60;;
25107;SDS011;13090;53.422;7.670;2023-11-21T20:54:12;13.02;;;7.13;;
25107;SDS011;13090;53.422;7.670;2023-11-21T20:59:52;11.45;;;6.80;;
25107;SDS011;13090;53.422;7.670;2023-11-21T21:05:32;8.45;;;5.82;;
25107;SDS011;13090;53.422;7.670;2023-11-21T21:11:18;9.50;;;6.10;;
25107;SDS011;13090;53.422;7.670;2023-11-21T21:16:58;9.88;;;6.88;;
25107;SDS011;13090;53.422;7.670;2023-11-21T21:22:39;8.73;;;4.93;;
25107;SDS011;13090;53.422;7.670;2023-11-21T21:28:20;7.95;;;5.18;;
25107;SDS011;13090;53.422;7.670;2023-11-21T21:34:00;7.60;;;4.97;;
25107;SDS011;13090;53.422;7.670;2023-11-21T21:39:41;8.23;;;5.10;;
25107;SDS011;13090;53.422;7.670;2023-11-21T21:45:22;10.23;;;5.65;;
25107;SDS011;13090;53.422;7.670;2023-11-21T21:51:05;10.52;;;6.70;;
25107;SDS011;13090;53.422;7.670;2023-11-21T21:56:53;13.30;;;7.32;;
25107;SDS011;13090;53.422;7.670;2023-11-21T22:02:35;11.43;;;6.95;;
25107;SDS011;13090;53.422;7.670;2023-11-21T22:08:15;10.68;;;6.65;;
25107;SDS011;13090;53.422;7.670;2023-11-21T22:13:55;7.40;;;5.43;;
25107;SDS011;13090;53.422;7.670;2023-11-21T22:19:37;10.43;;;6.63;;
25107;SDS011;13090;53.422;7.670;2023-11-21T22:25:17;9.75;;;6.05;;
25107;SDS011;13090;53.422;7.670;2023-11-21T22:30:57;8.63;;;5.57;;
25107;SDS011;13090;53.422;7.670;2023-11-21T22:36:39;10.88;;;6.05;;
25107;SDS011;13090;53.422;7.670;2023-11-21T22:42:19;10.73;;;6.10;;
25107;SDS011;13090;53.422;7.670;2023-11-21T22:47:59;9.10;;;5.47;;
25107;SDS011;13090;53.422;7.670;2023-11-21T22:53:41;8.75;;;5.05;;
25107;SDS011;13090;53.422;7.670;2023-11-21T22:59:20;6.38;;;4.30;;
25107;SDS011;13090;53.422;7.670;2023-11-21T23:05:01;6.78;;;4.95;;
25107;SDS011;13090;53.422;7.670;2023-11-21T23:10:42;8.38;;;5.15;;
25107;SDS011;13090;53.422;7.670;2023-11-21T23:16:22;8.52;;;5.65;;
25107;SDS011;13090;53.422;7.670;2023-11-21T23:22:03;7.15;;;5.30;;
25107;SDS011;13090;53.422;7.670;2023-11-21T23:27:44;9.90;;;5.53;;
25107;SDS011;13090;53.422;7.670;2023-11-21T23:33:25;9.20;;;5.80;;
25107;SDS011;13090;53.422;7.670;2023-11-21T23:39:05;8.85;;;5.70;;
25107;SDS011;13090;53.422;7.670;2023-11-21T23:44:46;10.38;;;5.32;;
25107;SDS011;13090;53.422;7.670;2023-11-21T23:50:29;7.30;;;4.97;;
25107;SDS011;13090;53.422;7.670;2023-11-21T23:56:10;10.80;;;5.72;;
